TUI8990 EDDP-LEBL
Flight info
| Callsign | TUI8990 |
|---|---|
| Flight time | N/A |
| Altitude | 370000 |
| Route | NEVKO1K NEVKO Q243 BAMKI Z94 KOMIB DCT TEDGO/N0460F370 N869 NATOR DCT LUTIX DCT BENOT DCT NEMOS DCT GEVEA DCT INCUS DCT BALSI DCT RETNO DCT TUPOX DCT MTG DCT DIVKO DCT NILDU N975 BISBA |
| Aircraft | B738/M-SDE2E3FGHIRWXY/LB1 |
Departure
| Time | N/A |
|---|---|
| Airport | Leipzig/Halle Airport (EDDP) |
Arrival
| Time | 2026-05-07 09:50 |
|---|---|
| Airport | Josep Tarradellas Barcelona-El Prat Airport (LEBL) |
| Time | Latitude | Longitude | Altitude | Speed | Heading |
|---|---|---|---|---|---|
| 2026-05-07 09:37 | 41.69133 | 2.37136 | 6981 ft | 323 kts | 230° |
| 2026-05-07 09:37 | 41.67683 | 2.34924 | 6873 ft | 310 kts | 230° |
| 2026-05-07 09:37 | 41.66289 | 2.32795 | 6791 ft | 298 kts | 230° |
| 2026-05-07 09:38 | 41.64947 | 2.30743 | 6706 ft | 287 kts | 230° |
| 2026-05-07 09:38 | 41.63654 | 2.28768 | 6633 ft | 277 kts | 231° |
| 2026-05-07 09:38 | 41.62423 | 2.26887 | 6498 ft | 270 kts | 230° |
| 2026-05-07 09:38 | 41.61194 | 2.25009 | 6243 ft | 268 kts | 230° |
| 2026-05-07 09:39 | 41.59965 | 2.23131 | 6045 ft | 269 kts | 230° |
| 2026-05-07 09:39 | 41.58734 | 2.21251 | 5973 ft | 268 kts | 230° |
| 2026-05-07 09:39 | 41.57514 | 2.19391 | 5972 ft | 265 kts | 230° |
| 2026-05-07 09:39 | 41.56291 | 2.17526 | 5978 ft | 268 kts | 231° |
| 2026-05-07 09:40 | 41.55062 | 2.15656 | 5955 ft | 267 kts | 230° |
| 2026-05-07 09:40 | 41.53822 | 2.13793 | 5679 ft | 268 kts | 229° |
| 2026-05-07 09:40 | 41.52537 | 2.12009 | 5432 ft | 265 kts | 227° |
| 2026-05-07 09:40 | 41.51246 | 2.10261 | 5179 ft | 263 kts | 226° |
| 2026-05-07 09:41 | 41.49965 | 2.08529 | 4924 ft | 261 kts | 226° |
| 2026-05-07 09:41 | 41.48697 | 2.06810 | 4665 ft | 259 kts | 226° |
| 2026-05-07 09:41 | 41.47460 | 2.05130 | 4410 ft | 257 kts | 226° |
| 2026-05-07 09:41 | 41.46210 | 2.03426 | 4155 ft | 256 kts | 226° |
| 2026-05-07 09:42 | 41.44972 | 2.01738 | 3914 ft | 254 kts | 226° |
| 2026-05-07 09:42 | 41.43757 | 2.00080 | 3950 ft | 248 kts | 226° |
| 2026-05-07 09:42 | 41.42529 | 1.98404 | 3980 ft | 259 kts | 226° |
| 2026-05-07 09:42 | 41.41254 | 1.96664 | 3987 ft | 266 kts | 226° |
| 2026-05-07 09:43 | 41.39958 | 1.94896 | 3979 ft | 267 kts | 226° |
| 2026-05-07 09:43 | 41.38671 | 1.93141 | 3963 ft | 265 kts | 226° |
| 2026-05-07 09:43 | 41.37387 | 1.91389 | 3968 ft | 264 kts | 226° |
| 2026-05-07 09:43 | 41.36106 | 1.89643 | 3966 ft | 263 kts | 225° |
| 2026-05-07 09:44 | 41.34830 | 1.87905 | 3966 ft | 262 kts | 225° |
| 2026-05-07 09:44 | 41.33558 | 1.86173 | 3970 ft | 261 kts | 225° |
| 2026-05-07 09:44 | 41.32280 | 1.84432 | 3857 ft | 265 kts | 225° |
| 2026-05-07 09:44 | 41.31000 | 1.82694 | 3621 ft | 266 kts | 225° |
| 2026-05-07 09:45 | 41.29626 | 1.81008 | 3280 ft | 267 kts | 211° |
| 2026-05-07 09:45 | 41.27895 | 1.80228 | 3011 ft | 262 kts | 180° |
| 2026-05-07 09:45 | 41.26165 | 1.80616 | 2959 ft | 250 kts | 159° |
| 2026-05-07 09:45 | 41.24585 | 1.81392 | 2962 ft | 236 kts | 154° |
| 2026-05-07 09:46 | 41.23316 | 1.82594 | 2954 ft | 217 kts | 124° |
| 2026-05-07 09:46 | 41.22793 | 1.84413 | 2980 ft | 210 kts | 96° |
| 2026-05-07 09:46 | 41.22696 | 1.86368 | 2975 ft | 213 kts | 91° |
| 2026-05-07 09:46 | 41.22983 | 1.88265 | 2989 ft | 209 kts | 64° |
| 2026-05-07 09:47 | 41.23643 | 1.89962 | 2809 ft | 203 kts | 67° |
| 2026-05-07 09:47 | 41.24204 | 1.91654 | 2551 ft | 198 kts | 68° |
| 2026-05-07 09:47 | 41.24755 | 1.93303 | 2312 ft | 193 kts | 67° |
| 2026-05-07 09:47 | 41.25295 | 1.94895 | 2058 ft | 184 kts | 68° |
| 2026-05-07 09:48 | 41.25806 | 1.96394 | 1810 ft | 173 kts | 68° |
| 2026-05-07 09:48 | 41.26287 | 1.97808 | 1591 ft | 162 kts | 67° |
| 2026-05-07 09:48 | 41.26734 | 1.99121 | 1400 ft | 149 kts | 67° |
| 2026-05-07 09:48 | 41.27150 | 2.00342 | 1176 ft | 142 kts | 68° |
| 2026-05-07 09:49 | 41.27549 | 2.01513 | 993 ft | 136 kts | 68° |
| 2026-05-07 09:49 | 41.27941 | 2.02664 | 807 ft | 138 kts | 68° |
| 2026-05-07 09:49 | 41.28335 | 2.03826 | 639 ft | 143 kts | 68° |
| 2026-05-07 09:49 | 41.28759 | 2.05050 | 408 ft | 148 kts | 69° |
| 2026-05-07 09:50 | 41.29185 | 2.06306 | 237 ft | 148 kts | 68° |
| 2026-05-07 09:50 | 41.29598 | 2.07518 | 42 ft | 138 kts | 68° |
| 2026-05-07 09:50 | 41.29962 | 2.08597 | 25 ft | 110 kts | 65° |
| 2026-05-07 09:50 | 41.30181 | 2.09229 | 15 ft | 32 kts | 63° |
| 2026-05-07 09:51 | 41.30305 | 2.09448 | 16 ft | 28 kts | 40° |
| 2026-05-07 09:51 | 41.30418 | 2.09538 | 19 ft | 13 kts | 4° |
| 2026-05-07 09:51 | 41.30495 | 2.09488 | 17 ft | 12 kts | 316° |
| 2026-05-07 09:51 | 41.30481 | 2.09387 | 18 ft | 12 kts | 241° |
| 2026-05-07 09:52 | 41.30445 | 2.09288 | 19 ft | 12 kts | 246° |
| 2026-05-07 09:52 | 41.30407 | 2.09173 | 19 ft | 16 kts | 246° |